<?xml version="1.0" encoding="UTF-8" standalone="no" ?>
<gpx xmlns="http://www.topografix.com/GPX/1/1" xmlns:xsi="http://www.w3.org/2001/XMLSchema-instance" xsi:schemaLocation="http://www.topografix.com/GPX/1/1 http://www.topografix.com/GPX/1/1/gpx.xsd" version="1.1" creator="VisuGPX - https://www.visugpx.com">
  <metadata>
    <name>Boucle mairie - le Theil - mairie</name>
    <desc><![CDATA[[b][color=red]Un beau tour de St Laurent et de la Sèvre[/color][/b]]]></desc>
  </metadata>
  <trk>
    <name><![CDATA[14452208-mairie le theil mairie]]></name>
    <extensions>
      <line xmlns="http://www.topografix.com/GPX/gpx_style/0/2">
        <color>0000FF</color>
        <width>4</width>
      </line>
    </extensions>
    <trkseg>
      <trkpt lat="46.95906" lon="-0.88679">
        <ele>112</ele>
        <time>2022-03-23T21:25:08Z</time>
      </trkpt>
      <trkpt lat="46.95933" lon="-0.8868">
        <ele>112</ele>
        <time>2022-03-23T21:24:32Z</time>
      </trkpt>
      <trkpt lat="46.95945" lon="-0.88707">
        <ele>112</ele>
        <time>2022-03-23T21:24:03Z</time>
      </trkpt>
      <trkpt lat="46.95968" lon="-0.88702">
        <ele>113</ele>
        <time>2022-03-23T21:23:32Z</time>
      </trkpt>
      <trkpt lat="46.95995" lon="-0.88698">
        <ele>113</ele>
        <time>2022-03-23T21:22:56Z</time>
      </trkpt>
      <trkpt lat="46.96014" lon="-0.88699">
        <ele>113</ele>
        <time>2022-03-23T21:22:30Z</time>
      </trkpt>
      <trkpt lat="46.96035" lon="-0.88697">
        <ele>113</ele>
        <time>2022-03-23T21:22:02Z</time>
      </trkpt>
      <trkpt lat="46.96043" lon="-0.88689">
        <ele>112</ele>
        <time>2022-03-23T21:21:49Z</time>
      </trkpt>
      <trkpt lat="46.96054" lon="-0.88695">
        <ele>112</ele>
        <time>2022-03-23T21:21:33Z</time>
      </trkpt>
      <trkpt lat="46.9606" lon="-0.88702">
        <ele>112</ele>
        <time>2022-03-23T21:21:23Z</time>
      </trkpt>
      <trkpt lat="46.96066" lon="-0.88711">
        <ele>112</ele>
        <time>2022-03-23T21:21:12Z</time>
      </trkpt>
      <trkpt lat="46.96062" lon="-0.88733">
        <ele>112</ele>
        <time>2022-03-23T21:20:51Z</time>
      </trkpt>
      <trkpt lat="46.96071" lon="-0.88731">
        <ele>112</ele>
        <time>2022-03-23T21:20:39Z</time>
      </trkpt>
      <trkpt lat="46.96095" lon="-0.88749">
        <ele>112</ele>
        <time>2022-03-23T21:20:03Z</time>
      </trkpt>
      <trkpt lat="46.9612" lon="-0.88762">
        <ele>112</ele>
        <time>2022-03-23T21:19:28Z</time>
      </trkpt>
      <trkpt lat="46.96147" lon="-0.88778">
        <ele>112</ele>
        <time>2022-03-23T21:18:49Z</time>
      </trkpt>
      <trkpt lat="46.96172" lon="-0.88798">
        <ele>112</ele>
        <time>2022-03-23T21:18:11Z</time>
      </trkpt>
      <trkpt lat="46.96196" lon="-0.88819">
        <ele>114</ele>
        <time>2022-03-23T21:17:33Z</time>
      </trkpt>
      <trkpt lat="46.96218" lon="-0.88842">
        <ele>115</ele>
        <time>2022-03-23T21:16:57Z</time>
      </trkpt>
      <trkpt lat="46.96265" lon="-0.8889">
        <ele>116</ele>
        <time>2022-03-23T21:15:41Z</time>
      </trkpt>
      <trkpt lat="46.96271" lon="-0.88907">
        <ele>115</ele>
        <time>2022-03-23T21:15:23Z</time>
      </trkpt>
      <trkpt lat="46.9629" lon="-0.8893">
        <ele>115</ele>
        <time>2022-03-23T21:14:51Z</time>
      </trkpt>
      <trkpt lat="46.96307" lon="-0.88958">
        <ele>115</ele>
        <time>2022-03-23T21:14:16Z</time>
      </trkpt>
      <trkpt lat="46.96313" lon="-0.88987">
        <ele>113</ele>
        <time>2022-03-23T21:13:49Z</time>
      </trkpt>
      <trkpt lat="46.96316" lon="-0.88996">
        <ele>113</ele>
        <time>2022-03-23T21:13:40Z</time>
      </trkpt>
      <trkpt lat="46.96319" lon="-0.8901">
        <ele>113</ele>
        <time>2022-03-23T21:13:26Z</time>
      </trkpt>
      <trkpt lat="46.96327" lon="-0.89024">
        <ele>113</ele>
        <time>2022-03-23T21:13:10Z</time>
      </trkpt>
      <trkpt lat="46.96332" lon="-0.89044">
        <ele>112</ele>
        <time>2022-03-23T21:12:50Z</time>
      </trkpt>
      <trkpt lat="46.96338" lon="-0.89063">
        <ele>112</ele>
        <time>2022-03-23T21:12:31Z</time>
      </trkpt>
      <trkpt lat="46.96341" lon="-0.89084">
        <ele>112</ele>
        <time>2022-03-23T21:12:12Z</time>
      </trkpt>
      <trkpt lat="46.96346" lon="-0.89109">
        <ele>112</ele>
        <time>2022-03-23T21:11:48Z</time>
      </trkpt>
      <trkpt lat="46.96349" lon="-0.89127">
        <ele>112</ele>
        <time>2022-03-23T21:11:31Z</time>
      </trkpt>
      <trkpt lat="46.96339" lon="-0.89136">
        <ele>112</ele>
        <time>2022-03-23T21:11:15Z</time>
      </trkpt>
      <trkpt lat="46.9632" lon="-0.8914">
        <ele>111</ele>
        <time>2022-03-23T21:10:50Z</time>
      </trkpt>
      <trkpt lat="46.9632" lon="-0.89177">
        <ele>111</ele>
        <time>2022-03-23T21:10:16Z</time>
      </trkpt>
      <trkpt lat="46.96323" lon="-0.89217">
        <ele>110</ele>
        <time>2022-03-23T21:09:39Z</time>
      </trkpt>
      <trkpt lat="46.96321" lon="-0.89259">
        <ele>109</ele>
        <time>2022-03-23T21:09:01Z</time>
      </trkpt>
      <trkpt lat="46.96322" lon="-0.89307">
        <ele>111</ele>
        <time>2022-03-23T21:08:17Z</time>
      </trkpt>
      <trkpt lat="46.96322" lon="-0.89345">
        <ele>112</ele>
        <time>2022-03-23T21:07:43Z</time>
      </trkpt>
      <trkpt lat="46.96325" lon="-0.89374">
        <ele>113</ele>
        <time>2022-03-23T21:07:16Z</time>
      </trkpt>
      <trkpt lat="46.96334" lon="-0.89426">
        <ele>115</ele>
        <time>2022-03-23T21:06:27Z</time>
      </trkpt>
      <trkpt lat="46.9633" lon="-0.89452">
        <ele>118</ele>
        <time>2022-03-23T21:06:03Z</time>
      </trkpt>
      <trkpt lat="46.96322" lon="-0.89468">
        <ele>120</ele>
        <time>2022-03-23T21:05:45Z</time>
      </trkpt>
      <trkpt lat="46.96304" lon="-0.8948">
        <ele>120</ele>
        <time>2022-03-23T21:05:18Z</time>
      </trkpt>
      <trkpt lat="46.96277" lon="-0.89497">
        <ele>120</ele>
        <time>2022-03-23T21:04:39Z</time>
      </trkpt>
      <trkpt lat="46.96245" lon="-0.89525">
        <ele>117</ele>
        <time>2022-03-23T21:03:50Z</time>
      </trkpt>
      <trkpt lat="46.96223" lon="-0.89548">
        <ele>116</ele>
        <time>2022-03-23T21:03:13Z</time>
      </trkpt>
      <trkpt lat="46.96236" lon="-0.89575">
        <ele>116</ele>
        <time>2022-03-23T21:02:43Z</time>
      </trkpt>
      <trkpt lat="46.96282" lon="-0.89615">
        <ele>118</ele>
        <time>2022-03-23T21:01:32Z</time>
      </trkpt>
      <trkpt lat="46.96319" lon="-0.89647">
        <ele>119</ele>
        <time>2022-03-23T21:00:35Z</time>
      </trkpt>
      <trkpt lat="46.96327" lon="-0.89658">
        <ele>118</ele>
        <time>2022-03-23T21:00:20Z</time>
      </trkpt>
      <trkpt lat="46.96335" lon="-0.89677">
        <ele>117</ele>
        <time>2022-03-23T21:00:00Z</time>
      </trkpt>
      <trkpt lat="46.96348" lon="-0.89691">
        <ele>118</ele>
        <time>2022-03-23T20:59:38Z</time>
      </trkpt>
      <trkpt lat="46.96369" lon="-0.89712">
        <ele>118</ele>
        <time>2022-03-23T20:59:04Z</time>
      </trkpt>
      <trkpt lat="46.96427" lon="-0.89764">
        <ele>119</ele>
        <time>2022-03-23T20:57:33Z</time>
      </trkpt>
      <trkpt lat="46.96446" lon="-0.89806">
        <ele>119</ele>
        <time>2022-03-23T20:56:48Z</time>
      </trkpt>
      <trkpt lat="46.96454" lon="-0.89822">
        <ele>119</ele>
        <time>2022-03-23T20:56:30Z</time>
      </trkpt>
      <trkpt lat="46.96446" lon="-0.89835">
        <ele>117</ele>
        <time>2022-03-23T20:56:14Z</time>
      </trkpt>
      <trkpt lat="46.96446" lon="-0.89852">
        <ele>116</ele>
        <time>2022-03-23T20:55:58Z</time>
      </trkpt>
      <trkpt lat="46.96443" lon="-0.89876">
        <ele>115</ele>
        <time>2022-03-23T20:55:36Z</time>
      </trkpt>
      <trkpt lat="46.96469" lon="-0.89994">
        <ele>119</ele>
        <time>2022-03-23T20:53:43Z</time>
      </trkpt>
      <trkpt lat="46.96466" lon="-0.90055">
        <ele>115</ele>
        <time>2022-03-23T20:52:47Z</time>
      </trkpt>
      <trkpt lat="46.96482" lon="-0.90103">
        <ele>113</ele>
        <time>2022-03-23T20:51:59Z</time>
      </trkpt>
      <trkpt lat="46.965" lon="-0.90119">
        <ele>113</ele>
        <time>2022-03-23T20:51:31Z</time>
      </trkpt>
      <trkpt lat="46.96516" lon="-0.90137">
        <ele>112</ele>
        <time>2022-03-23T20:51:04Z</time>
      </trkpt>
      <trkpt lat="46.9653" lon="-0.90154">
        <ele>111</ele>
        <time>2022-03-23T20:50:39Z</time>
      </trkpt>
      <trkpt lat="46.96561" lon="-0.90156">
        <ele>113</ele>
        <time>2022-03-23T20:49:58Z</time>
      </trkpt>
      <trkpt lat="46.96582" lon="-0.90162">
        <ele>113</ele>
        <time>2022-03-23T20:49:29Z</time>
      </trkpt>
      <trkpt lat="46.96596" lon="-0.90182">
        <ele>113</ele>
        <time>2022-03-23T20:49:03Z</time>
      </trkpt>
      <trkpt lat="46.9659" lon="-0.90201">
        <ele>111</ele>
        <time>2022-03-23T20:48:44Z</time>
      </trkpt>
      <trkpt lat="46.96604" lon="-0.90218">
        <ele>112</ele>
        <time>2022-03-23T20:48:20Z</time>
      </trkpt>
      <trkpt lat="46.96633" lon="-0.90237">
        <ele>113</ele>
        <time>2022-03-23T20:47:38Z</time>
      </trkpt>
      <trkpt lat="46.96656" lon="-0.90268">
        <ele>112</ele>
        <time>2022-03-23T20:46:56Z</time>
      </trkpt>
      <trkpt lat="46.96686" lon="-0.9029">
        <ele>114</ele>
        <time>2022-03-23T20:46:11Z</time>
      </trkpt>
      <trkpt lat="46.96718" lon="-0.90337">
        <ele>115</ele>
        <time>2022-03-23T20:45:11Z</time>
      </trkpt>
      <trkpt lat="46.9672" lon="-0.90367">
        <ele>114</ele>
        <time>2022-03-23T20:44:43Z</time>
      </trkpt>
      <trkpt lat="46.96721" lon="-0.90399">
        <ele>112</ele>
        <time>2022-03-23T20:44:14Z</time>
      </trkpt>
      <trkpt lat="46.96728" lon="-0.90433">
        <ele>112</ele>
        <time>2022-03-23T20:43:42Z</time>
      </trkpt>
      <trkpt lat="46.96733" lon="-0.90468">
        <ele>111</ele>
        <time>2022-03-23T20:43:09Z</time>
      </trkpt>
      <trkpt lat="46.96753" lon="-0.90467">
        <ele>110</ele>
        <time>2022-03-23T20:42:42Z</time>
      </trkpt>
      <trkpt lat="46.96766" lon="-0.90468">
        <ele>110</ele>
        <time>2022-03-23T20:42:25Z</time>
      </trkpt>
      <trkpt lat="46.96774" lon="-0.90454">
        <ele>111</ele>
        <time>2022-03-23T20:42:08Z</time>
      </trkpt>
      <trkpt lat="46.9678" lon="-0.90444">
        <ele>112</ele>
        <time>2022-03-23T20:41:56Z</time>
      </trkpt>
      <trkpt lat="46.96785" lon="-0.90421">
        <ele>113</ele>
        <time>2022-03-23T20:41:34Z</time>
      </trkpt>
      <trkpt lat="46.96776" lon="-0.90418">
        <ele>114</ele>
        <time>2022-03-23T20:41:22Z</time>
      </trkpt>
      <trkpt lat="46.96785" lon="-0.90403">
        <ele>115</ele>
        <time>2022-03-23T20:41:04Z</time>
      </trkpt>
      <trkpt lat="46.96796" lon="-0.90388">
        <ele>116</ele>
        <time>2022-03-23T20:40:44Z</time>
      </trkpt>
      <trkpt lat="46.96803" lon="-0.9037">
        <ele>118</ele>
        <time>2022-03-23T20:40:25Z</time>
      </trkpt>
      <trkpt lat="46.96811" lon="-0.9035">
        <ele>120</ele>
        <time>2022-03-23T20:40:04Z</time>
      </trkpt>
      <trkpt lat="46.96885" lon="-0.90284">
        <ele>120</ele>
        <time>2022-03-23T20:38:08Z</time>
      </trkpt>
      <trkpt lat="46.96912" lon="-0.90282">
        <ele>118</ele>
        <time>2022-03-23T20:37:32Z</time>
      </trkpt>
      <trkpt lat="46.96925" lon="-0.90278">
        <ele>117</ele>
        <time>2022-03-23T20:37:14Z</time>
      </trkpt>
      <trkpt lat="46.96924" lon="-0.9029">
        <ele>115</ele>
        <time>2022-03-23T20:37:03Z</time>
      </trkpt>
      <trkpt lat="46.96906" lon="-0.90302">
        <ele>116</ele>
        <time>2022-03-23T20:36:37Z</time>
      </trkpt>
      <trkpt lat="46.96887" lon="-0.90312">
        <ele>117</ele>
        <time>2022-03-23T20:36:10Z</time>
      </trkpt>
      <trkpt lat="46.96861" lon="-0.90329">
        <ele>119</ele>
        <time>2022-03-23T20:35:32Z</time>
      </trkpt>
      <trkpt lat="46.9684" lon="-0.90356">
        <ele>119</ele>
        <time>2022-03-23T20:34:55Z</time>
      </trkpt>
      <trkpt lat="46.96822" lon="-0.90395">
        <ele>115</ele>
        <time>2022-03-23T20:34:12Z</time>
      </trkpt>
      <trkpt lat="46.96804" lon="-0.90441">
        <ele>112</ele>
        <time>2022-03-23T20:33:24Z</time>
      </trkpt>
      <trkpt lat="46.96791" lon="-0.90472">
        <ele>110</ele>
        <time>2022-03-23T20:32:50Z</time>
      </trkpt>
      <trkpt lat="46.96766" lon="-0.90536">
        <ele>108</ele>
        <time>2022-03-23T20:31:43Z</time>
      </trkpt>
      <trkpt lat="46.96765" lon="-0.9055">
        <ele>108</ele>
        <time>2022-03-23T20:31:30Z</time>
      </trkpt>
      <trkpt lat="46.96776" lon="-0.9056">
        <ele>108</ele>
        <time>2022-03-23T20:31:13Z</time>
      </trkpt>
      <trkpt lat="46.96793" lon="-0.9055">
        <ele>108</ele>
        <time>2022-03-23T20:30:49Z</time>
      </trkpt>
      <trkpt lat="46.968" lon="-0.90553">
        <ele>108</ele>
        <time>2022-03-23T20:30:39Z</time>
      </trkpt>
      <trkpt lat="46.96807" lon="-0.90565">
        <ele>108</ele>
        <time>2022-03-23T20:30:25Z</time>
      </trkpt>
      <trkpt lat="46.96823" lon="-0.90567">
        <ele>108</ele>
        <time>2022-03-23T20:30:03Z</time>
      </trkpt>
      <trkpt lat="46.9684" lon="-0.90597">
        <ele>109</ele>
        <time>2022-03-23T20:29:28Z</time>
      </trkpt>
      <trkpt lat="46.96856" lon="-0.90626">
        <ele>110</ele>
        <time>2022-03-23T20:28:54Z</time>
      </trkpt>
      <trkpt lat="46.96871" lon="-0.90643">
        <ele>111</ele>
        <time>2022-03-23T20:28:28Z</time>
      </trkpt>
      <trkpt lat="46.96891" lon="-0.90671">
        <ele>111</ele>
        <time>2022-03-23T20:27:52Z</time>
      </trkpt>
      <trkpt lat="46.96905" lon="-0.90698">
        <ele>110</ele>
        <time>2022-03-23T20:27:21Z</time>
      </trkpt>
      <trkpt lat="46.96926" lon="-0.9071">
        <ele>111</ele>
        <time>2022-03-23T20:26:51Z</time>
      </trkpt>
      <trkpt lat="46.96936" lon="-0.90725">
        <ele>112</ele>
        <time>2022-03-23T20:26:31Z</time>
      </trkpt>
      <trkpt lat="46.96944" lon="-0.90751">
        <ele>112</ele>
        <time>2022-03-23T20:26:05Z</time>
      </trkpt>
      <trkpt lat="46.96949" lon="-0.90776">
        <ele>111</ele>
        <time>2022-03-23T20:25:42Z</time>
      </trkpt>
      <trkpt lat="46.96957" lon="-0.90799">
        <ele>112</ele>
        <time>2022-03-23T20:25:18Z</time>
      </trkpt>
      <trkpt lat="46.96963" lon="-0.90818">
        <ele>112</ele>
        <time>2022-03-23T20:24:59Z</time>
      </trkpt>
      <trkpt lat="46.96972" lon="-0.90845">
        <ele>112</ele>
        <time>2022-03-23T20:24:32Z</time>
      </trkpt>
      <trkpt lat="46.96978" lon="-0.90871">
        <ele>113</ele>
        <time>2022-03-23T20:24:07Z</time>
      </trkpt>
      <trkpt lat="46.96985" lon="-0.90898">
        <ele>113</ele>
        <time>2022-03-23T20:23:41Z</time>
      </trkpt>
      <trkpt lat="46.96992" lon="-0.90923">
        <ele>114</ele>
        <time>2022-03-23T20:23:16Z</time>
      </trkpt>
      <trkpt lat="46.96997" lon="-0.90977">
        <ele>115</ele>
        <time>2022-03-23T20:22:26Z</time>
      </trkpt>
      <trkpt lat="46.96997" lon="-0.90993">
        <ele>115</ele>
        <time>2022-03-23T20:22:12Z</time>
      </trkpt>
      <trkpt lat="46.97014" lon="-0.91">
        <ele>118</ele>
        <time>2022-03-23T20:21:48Z</time>
      </trkpt>
      <trkpt lat="46.97009" lon="-0.91018">
        <ele>117</ele>
        <time>2022-03-23T20:21:30Z</time>
      </trkpt>
      <trkpt lat="46.97" lon="-0.91037">
        <ele>116</ele>
        <time>2022-03-23T20:21:09Z</time>
      </trkpt>
      <trkpt lat="46.96997" lon="-0.91052">
        <ele>116</ele>
        <time>2022-03-23T20:20:55Z</time>
      </trkpt>
      <trkpt lat="46.96998" lon="-0.91067">
        <ele>117</ele>
        <time>2022-03-23T20:20:41Z</time>
      </trkpt>
      <trkpt lat="46.97003" lon="-0.91086">
        <ele>118</ele>
        <time>2022-03-23T20:20:23Z</time>
      </trkpt>
      <trkpt lat="46.97008" lon="-0.911">
        <ele>119</ele>
        <time>2022-03-23T20:20:09Z</time>
      </trkpt>
      <trkpt lat="46.97012" lon="-0.91115">
        <ele>120</ele>
        <time>2022-03-23T20:19:54Z</time>
      </trkpt>
      <trkpt lat="46.97009" lon="-0.91128">
        <ele>119</ele>
        <time>2022-03-23T20:19:41Z</time>
      </trkpt>
      <trkpt lat="46.96997" lon="-0.91151">
        <ele>117</ele>
        <time>2022-03-23T20:19:15Z</time>
      </trkpt>
      <trkpt lat="46.96993" lon="-0.91188">
        <ele>117</ele>
        <time>2022-03-23T20:18:41Z</time>
      </trkpt>
      <trkpt lat="46.96992" lon="-0.91222">
        <ele>118</ele>
        <time>2022-03-23T20:18:10Z</time>
      </trkpt>
      <trkpt lat="46.96987" lon="-0.91245">
        <ele>118</ele>
        <time>2022-03-23T20:17:48Z</time>
      </trkpt>
      <trkpt lat="46.96985" lon="-0.91279">
        <ele>118</ele>
        <time>2022-03-23T20:17:17Z</time>
      </trkpt>
      <trkpt lat="46.9698" lon="-0.91301">
        <ele>117</ele>
        <time>2022-03-23T20:16:56Z</time>
      </trkpt>
      <trkpt lat="46.96977" lon="-0.9132">
        <ele>117</ele>
        <time>2022-03-23T20:16:38Z</time>
      </trkpt>
      <trkpt lat="46.96984" lon="-0.9134">
        <ele>119</ele>
        <time>2022-03-23T20:16:17Z</time>
      </trkpt>
      <trkpt lat="46.9699" lon="-0.9135">
        <ele>120</ele>
        <time>2022-03-23T20:16:05Z</time>
      </trkpt>
      <trkpt lat="46.97005" lon="-0.91366">
        <ele>123</ele>
        <time>2022-03-23T20:15:41Z</time>
      </trkpt>
      <trkpt lat="46.97009" lon="-0.91383">
        <ele>124</ele>
        <time>2022-03-23T20:15:24Z</time>
      </trkpt>
      <trkpt lat="46.97016" lon="-0.91398">
        <ele>125</ele>
        <time>2022-03-23T20:15:08Z</time>
      </trkpt>
      <trkpt lat="46.97021" lon="-0.91411">
        <ele>126</ele>
        <time>2022-03-23T20:14:54Z</time>
      </trkpt>
      <trkpt lat="46.97022" lon="-0.91421">
        <ele>127</ele>
        <time>2022-03-23T20:14:45Z</time>
      </trkpt>
      <trkpt lat="46.97022" lon="-0.91435">
        <ele>126</ele>
        <time>2022-03-23T20:14:32Z</time>
      </trkpt>
      <trkpt lat="46.97022" lon="-0.91441">
        <ele>126</ele>
        <time>2022-03-23T20:14:27Z</time>
      </trkpt>
      <trkpt lat="46.97024" lon="-0.91454">
        <ele>126</ele>
        <time>2022-03-23T20:14:15Z</time>
      </trkpt>
      <trkpt lat="46.97026" lon="-0.91463">
        <ele>126</ele>
        <time>2022-03-23T20:14:06Z</time>
      </trkpt>
      <trkpt lat="46.97026" lon="-0.9148">
        <ele>126</ele>
        <time>2022-03-23T20:13:50Z</time>
      </trkpt>
      <trkpt lat="46.97024" lon="-0.91493">
        <ele>125</ele>
        <time>2022-03-23T20:13:38Z</time>
      </trkpt>
      <trkpt lat="46.97022" lon="-0.91503">
        <ele>124</ele>
        <time>2022-03-23T20:13:29Z</time>
      </trkpt>
      <trkpt lat="46.97022" lon="-0.91514">
        <ele>124</ele>
        <time>2022-03-23T20:13:19Z</time>
      </trkpt>
      <trkpt lat="46.97023" lon="-0.91521">
        <ele>124</ele>
        <time>2022-03-23T20:13:12Z</time>
      </trkpt>
      <trkpt lat="46.97027" lon="-0.91534">
        <ele>124</ele>
        <time>2022-03-23T20:12:59Z</time>
      </trkpt>
      <trkpt lat="46.97026" lon="-0.91549">
        <ele>124</ele>
        <time>2022-03-23T20:12:46Z</time>
      </trkpt>
      <trkpt lat="46.97014" lon="-0.91564">
        <ele>122</ele>
        <time>2022-03-23T20:12:25Z</time>
      </trkpt>
      <trkpt lat="46.96997" lon="-0.91567">
        <ele>120</ele>
        <time>2022-03-23T20:12:02Z</time>
      </trkpt>
      <trkpt lat="46.96978" lon="-0.91577">
        <ele>117</ele>
        <time>2022-03-23T20:11:35Z</time>
      </trkpt>
      <trkpt lat="46.9697" lon="-0.91592">
        <ele>116</ele>
        <time>2022-03-23T20:11:17Z</time>
      </trkpt>
      <trkpt lat="46.96966" lon="-0.91603">
        <ele>115</ele>
        <time>2022-03-23T20:11:06Z</time>
      </trkpt>
      <trkpt lat="46.96956" lon="-0.91621">
        <ele>114</ele>
        <time>2022-03-23T20:10:45Z</time>
      </trkpt>
      <trkpt lat="46.96955" lon="-0.91635">
        <ele>113</ele>
        <time>2022-03-23T20:10:32Z</time>
      </trkpt>
      <trkpt lat="46.96958" lon="-0.91651">
        <ele>114</ele>
        <time>2022-03-23T20:10:17Z</time>
      </trkpt>
      <trkpt lat="46.96964" lon="-0.91661">
        <ele>114</ele>
        <time>2022-03-23T20:10:05Z</time>
      </trkpt>
      <trkpt lat="46.96968" lon="-0.91671">
        <ele>115</ele>
        <time>2022-03-23T20:09:54Z</time>
      </trkpt>
      <trkpt lat="46.96967" lon="-0.91687">
        <ele>116</ele>
        <time>2022-03-23T20:09:40Z</time>
      </trkpt>
      <trkpt lat="46.96965" lon="-0.91706">
        <ele>118</ele>
        <time>2022-03-23T20:09:22Z</time>
      </trkpt>
      <trkpt lat="46.96968" lon="-0.91703">
        <ele>118</ele>
        <time>2022-03-23T20:09:17Z</time>
      </trkpt>
      <trkpt lat="46.9698" lon="-0.91712">
        <ele>120</ele>
        <time>2022-03-23T20:08:59Z</time>
      </trkpt>
      <trkpt lat="46.96956" lon="-0.91735">
        <ele>121</ele>
        <time>2022-03-23T20:08:21Z</time>
      </trkpt>
      <trkpt lat="46.96932" lon="-0.91767">
        <ele>124</ele>
        <time>2022-03-23T20:07:38Z</time>
      </trkpt>
      <trkpt lat="46.96873" lon="-0.91771">
        <ele>119</ele>
        <time>2022-03-23T20:06:19Z</time>
      </trkpt>
      <trkpt lat="46.96851" lon="-0.9177">
        <ele>117</ele>
        <time>2022-03-23T20:05:50Z</time>
      </trkpt>
      <trkpt lat="46.96828" lon="-0.91795">
        <ele>117</ele>
        <time>2022-03-23T20:05:11Z</time>
      </trkpt>
      <trkpt lat="46.96809" lon="-0.91745">
        <ele>109</ele>
        <time>2022-03-23T20:04:19Z</time>
      </trkpt>
      <trkpt lat="46.96804" lon="-0.91722">
        <ele>107</ele>
        <time>2022-03-23T20:03:57Z</time>
      </trkpt>
      <trkpt lat="46.96826" lon="-0.91611">
        <ele>102</ele>
        <time>2022-03-23T20:02:12Z</time>
      </trkpt>
      <trkpt lat="46.96797" lon="-0.91606">
        <ele>103</ele>
        <time>2022-03-23T20:01:33Z</time>
      </trkpt>
      <trkpt lat="46.96749" lon="-0.9163">
        <ele>104</ele>
        <time>2022-03-23T20:00:25Z</time>
      </trkpt>
      <trkpt lat="46.96724" lon="-0.91597">
        <ele>109</ele>
        <time>2022-03-23T19:59:40Z</time>
      </trkpt>
      <trkpt lat="46.96677" lon="-0.91632">
        <ele>112</ele>
        <time>2022-03-23T19:58:30Z</time>
      </trkpt>
      <trkpt lat="46.96645" lon="-0.91585">
        <ele>120</ele>
        <time>2022-03-23T19:57:30Z</time>
      </trkpt>
      <trkpt lat="46.96621" lon="-0.91535">
        <ele>127</ele>
        <time>2022-03-23T19:56:34Z</time>
      </trkpt>
      <trkpt lat="46.96637" lon="-0.9149">
        <ele>128</ele>
        <time>2022-03-23T19:55:48Z</time>
      </trkpt>
      <trkpt lat="46.96665" lon="-0.91464">
        <ele>124</ele>
        <time>2022-03-23T19:55:04Z</time>
      </trkpt>
      <trkpt lat="46.96674" lon="-0.91447">
        <ele>122</ele>
        <time>2022-03-23T19:54:44Z</time>
      </trkpt>
      <trkpt lat="46.9668" lon="-0.91424">
        <ele>122</ele>
        <time>2022-03-23T19:54:22Z</time>
      </trkpt>
      <trkpt lat="46.96696" lon="-0.91409">
        <ele>121</ele>
        <time>2022-03-23T19:53:56Z</time>
      </trkpt>
      <trkpt lat="46.96741" lon="-0.91398">
        <ele>118</ele>
        <time>2022-03-23T19:52:55Z</time>
      </trkpt>
      <trkpt lat="46.9676" lon="-0.91355">
        <ele>120</ele>
        <time>2022-03-23T19:52:09Z</time>
      </trkpt>
      <trkpt lat="46.96784" lon="-0.91297">
        <ele>119</ele>
        <time>2022-03-23T19:51:07Z</time>
      </trkpt>
      <trkpt lat="46.96794" lon="-0.91239">
        <ele>119</ele>
        <time>2022-03-23T19:50:12Z</time>
      </trkpt>
      <trkpt lat="46.96787" lon="-0.91185">
        <ele>123</ele>
        <time>2022-03-23T19:49:22Z</time>
      </trkpt>
      <trkpt lat="46.9677" lon="-0.91119">
        <ele>129</ele>
        <time>2022-03-23T19:48:18Z</time>
      </trkpt>
      <trkpt lat="46.96746" lon="-0.91089">
        <ele>136</ele>
        <time>2022-03-23T19:47:36Z</time>
      </trkpt>
      <trkpt lat="46.96731" lon="-0.9105">
        <ele>137</ele>
        <time>2022-03-23T19:46:55Z</time>
      </trkpt>
      <trkpt lat="46.96713" lon="-0.90982">
        <ele>138</ele>
        <time>2022-03-23T19:45:49Z</time>
      </trkpt>
      <trkpt lat="46.96703" lon="-0.90924">
        <ele>141</ele>
        <time>2022-03-23T19:44:54Z</time>
      </trkpt>
      <trkpt lat="46.96646" lon="-0.90911">
        <ele>147</ele>
        <time>2022-03-23T19:43:37Z</time>
      </trkpt>
      <trkpt lat="46.9659" lon="-0.90896">
        <ele>151</ele>
        <time>2022-03-23T19:42:21Z</time>
      </trkpt>
      <trkpt lat="46.96551" lon="-0.90889">
        <ele>154</ele>
        <time>2022-03-23T19:41:29Z</time>
      </trkpt>
      <trkpt lat="46.96519" lon="-0.90892">
        <ele>155</ele>
        <time>2022-03-23T19:40:46Z</time>
      </trkpt>
      <trkpt lat="46.96498" lon="-0.90876">
        <ele>157</ele>
        <time>2022-03-23T19:40:15Z</time>
      </trkpt>
      <trkpt lat="46.96482" lon="-0.90839">
        <ele>159</ele>
        <time>2022-03-23T19:39:35Z</time>
      </trkpt>
      <trkpt lat="46.96476" lon="-0.90809">
        <ele>159</ele>
        <time>2022-03-23T19:39:06Z</time>
      </trkpt>
      <trkpt lat="46.96486" lon="-0.90767">
        <ele>159</ele>
        <time>2022-03-23T19:38:26Z</time>
      </trkpt>
      <trkpt lat="46.96507" lon="-0.90679">
        <ele>155</ele>
        <time>2022-03-23T19:37:01Z</time>
      </trkpt>
      <trkpt lat="46.96523" lon="-0.9065">
        <ele>153</ele>
        <time>2022-03-23T19:36:27Z</time>
      </trkpt>
      <trkpt lat="46.96535" lon="-0.90624">
        <ele>151</ele>
        <time>2022-03-23T19:35:58Z</time>
      </trkpt>
      <trkpt lat="46.96547" lon="-0.90583">
        <ele>149</ele>
        <time>2022-03-23T19:35:18Z</time>
      </trkpt>
      <trkpt lat="46.96553" lon="-0.90558">
        <ele>147</ele>
        <time>2022-03-23T19:34:54Z</time>
      </trkpt>
      <trkpt lat="46.96528" lon="-0.90469">
        <ele>142</ele>
        <time>2022-03-23T19:33:26Z</time>
      </trkpt>
      <trkpt lat="46.96498" lon="-0.90403">
        <ele>140</ele>
        <time>2022-03-23T19:32:14Z</time>
      </trkpt>
      <trkpt lat="46.96472" lon="-0.90391">
        <ele>139</ele>
        <time>2022-03-23T19:31:37Z</time>
      </trkpt>
      <trkpt lat="46.96441" lon="-0.90366">
        <ele>136</ele>
        <time>2022-03-23T19:30:50Z</time>
      </trkpt>
      <trkpt lat="46.96413" lon="-0.90339">
        <ele>135</ele>
        <time>2022-03-23T19:30:05Z</time>
      </trkpt>
      <trkpt lat="46.96404" lon="-0.90312">
        <ele>132</ele>
        <time>2022-03-23T19:29:38Z</time>
      </trkpt>
      <trkpt lat="46.96393" lon="-0.90291">
        <ele>131</ele>
        <time>2022-03-23T19:29:14Z</time>
      </trkpt>
      <trkpt lat="46.96367" lon="-0.90276">
        <ele>133</ele>
        <time>2022-03-23T19:28:37Z</time>
      </trkpt>
      <trkpt lat="46.96333" lon="-0.90243">
        <ele>136</ele>
        <time>2022-03-23T19:27:42Z</time>
      </trkpt>
      <trkpt lat="46.96331" lon="-0.9021">
        <ele>133</ele>
        <time>2022-03-23T19:27:12Z</time>
      </trkpt>
      <trkpt lat="46.96326" lon="-0.90178">
        <ele>130</ele>
        <time>2022-03-23T19:26:42Z</time>
      </trkpt>
      <trkpt lat="46.96311" lon="-0.90138">
        <ele>127</ele>
        <time>2022-03-23T19:26:00Z</time>
      </trkpt>
      <trkpt lat="46.9629" lon="-0.90136">
        <ele>128</ele>
        <time>2022-03-23T19:25:32Z</time>
      </trkpt>
      <trkpt lat="46.96264" lon="-0.90136">
        <ele>131</ele>
        <time>2022-03-23T19:24:58Z</time>
      </trkpt>
      <trkpt lat="46.96239" lon="-0.90134">
        <ele>132</ele>
        <time>2022-03-23T19:24:24Z</time>
      </trkpt>
      <trkpt lat="46.96223" lon="-0.90125">
        <ele>132</ele>
        <time>2022-03-23T19:24:01Z</time>
      </trkpt>
      <trkpt lat="46.96165" lon="-0.90076">
        <ele>135</ele>
        <time>2022-03-23T19:22:32Z</time>
      </trkpt>
      <trkpt lat="46.96142" lon="-0.90119">
        <ele>138</ele>
        <time>2022-03-23T19:21:42Z</time>
      </trkpt>
      <trkpt lat="46.96143" lon="-0.90147">
        <ele>138</ele>
        <time>2022-03-23T19:21:17Z</time>
      </trkpt>
      <trkpt lat="46.9614" lon="-0.90174">
        <ele>139</ele>
        <time>2022-03-23T19:20:52Z</time>
      </trkpt>
      <trkpt lat="46.96132" lon="-0.90194">
        <ele>139</ele>
        <time>2022-03-23T19:20:31Z</time>
      </trkpt>
      <trkpt lat="46.96105" lon="-0.90202">
        <ele>142</ele>
        <time>2022-03-23T19:19:54Z</time>
      </trkpt>
      <trkpt lat="46.96087" lon="-0.9018">
        <ele>145</ele>
        <time>2022-03-23T19:19:23Z</time>
      </trkpt>
      <trkpt lat="46.96085" lon="-0.90161">
        <ele>146</ele>
        <time>2022-03-23T19:19:05Z</time>
      </trkpt>
      <trkpt lat="46.96077" lon="-0.90136">
        <ele>145</ele>
        <time>2022-03-23T19:18:40Z</time>
      </trkpt>
      <trkpt lat="46.96059" lon="-0.90129">
        <ele>145</ele>
        <time>2022-03-23T19:18:15Z</time>
      </trkpt>
      <trkpt lat="46.96038" lon="-0.90145">
        <ele>147</ele>
        <time>2022-03-23T19:17:44Z</time>
      </trkpt>
      <trkpt lat="46.96005" lon="-0.9017">
        <ele>149</ele>
        <time>2022-03-23T19:16:54Z</time>
      </trkpt>
      <trkpt lat="46.95975" lon="-0.90195">
        <ele>149</ele>
        <time>2022-03-23T19:16:08Z</time>
      </trkpt>
      <trkpt lat="46.95963" lon="-0.90214">
        <ele>150</ele>
        <time>2022-03-23T19:15:44Z</time>
      </trkpt>
      <trkpt lat="46.95962" lon="-0.90249">
        <ele>150</ele>
        <time>2022-03-23T19:15:13Z</time>
      </trkpt>
      <trkpt lat="46.95942" lon="-0.90254">
        <ele>151</ele>
        <time>2022-03-23T19:14:45Z</time>
      </trkpt>
      <trkpt lat="46.95908" lon="-0.90259">
        <ele>152</ele>
        <time>2022-03-23T19:14:00Z</time>
      </trkpt>
      <trkpt lat="46.95883" lon="-0.90265">
        <ele>152</ele>
        <time>2022-03-23T19:13:26Z</time>
      </trkpt>
      <trkpt lat="46.9586" lon="-0.90278">
        <ele>152</ele>
        <time>2022-03-23T19:12:53Z</time>
      </trkpt>
      <trkpt lat="46.95837" lon="-0.90286">
        <ele>152</ele>
        <time>2022-03-23T19:12:22Z</time>
      </trkpt>
      <trkpt lat="46.95803" lon="-0.90305">
        <ele>151</ele>
        <time>2022-03-23T19:11:33Z</time>
      </trkpt>
      <trkpt lat="46.95784" lon="-0.90305">
        <ele>150</ele>
        <time>2022-03-23T19:11:08Z</time>
      </trkpt>
      <trkpt lat="46.95759" lon="-0.90283">
        <ele>150</ele>
        <time>2022-03-23T19:10:29Z</time>
      </trkpt>
      <trkpt lat="46.95767" lon="-0.90258">
        <ele>150</ele>
        <time>2022-03-23T19:10:04Z</time>
      </trkpt>
      <trkpt lat="46.95774" lon="-0.90238">
        <ele>150</ele>
        <time>2022-03-23T19:09:43Z</time>
      </trkpt>
      <trkpt lat="46.95774" lon="-0.90219">
        <ele>149</ele>
        <time>2022-03-23T19:09:26Z</time>
      </trkpt>
      <trkpt lat="46.95776" lon="-0.90185">
        <ele>148</ele>
        <time>2022-03-23T19:08:55Z</time>
      </trkpt>
      <trkpt lat="46.95778" lon="-0.90163">
        <ele>147</ele>
        <time>2022-03-23T19:08:35Z</time>
      </trkpt>
      <trkpt lat="46.95786" lon="-0.90132">
        <ele>145</ele>
        <time>2022-03-23T19:08:04Z</time>
      </trkpt>
      <trkpt lat="46.95795" lon="-0.90094">
        <ele>143</ele>
        <time>2022-03-23T19:07:28Z</time>
      </trkpt>
      <trkpt lat="46.95801" lon="-0.90063">
        <ele>141</ele>
        <time>2022-03-23T19:06:58Z</time>
      </trkpt>
      <trkpt lat="46.95803" lon="-0.90028">
        <ele>140</ele>
        <time>2022-03-23T19:06:26Z</time>
      </trkpt>
      <trkpt lat="46.95804" lon="-0.90002">
        <ele>139</ele>
        <time>2022-03-23T19:06:03Z</time>
      </trkpt>
      <trkpt lat="46.95792" lon="-0.89988">
        <ele>138</ele>
        <time>2022-03-23T19:05:42Z</time>
      </trkpt>
      <trkpt lat="46.95752" lon="-0.89964">
        <ele>136</ele>
        <time>2022-03-23T19:04:44Z</time>
      </trkpt>
      <trkpt lat="46.957" lon="-0.89925">
        <ele>137</ele>
        <time>2022-03-23T19:03:27Z</time>
      </trkpt>
      <trkpt lat="46.95683" lon="-0.89912">
        <ele>137</ele>
        <time>2022-03-23T19:03:01Z</time>
      </trkpt>
      <trkpt lat="46.95668" lon="-0.89892">
        <ele>138</ele>
        <time>2022-03-23T19:02:34Z</time>
      </trkpt>
      <trkpt lat="46.95666" lon="-0.89861">
        <ele>139</ele>
        <time>2022-03-23T19:02:06Z</time>
      </trkpt>
      <trkpt lat="46.95663" lon="-0.89841">
        <ele>139</ele>
        <time>2022-03-23T19:01:47Z</time>
      </trkpt>
      <trkpt lat="46.95638" lon="-0.89836">
        <ele>139</ele>
        <time>2022-03-23T19:01:13Z</time>
      </trkpt>
      <trkpt lat="46.95621" lon="-0.89843">
        <ele>139</ele>
        <time>2022-03-23T19:00:50Z</time>
      </trkpt>
      <trkpt lat="46.95594" lon="-0.89851">
        <ele>139</ele>
        <time>2022-03-23T19:00:13Z</time>
      </trkpt>
      <trkpt lat="46.95578" lon="-0.89853">
        <ele>139</ele>
        <time>2022-03-23T18:59:51Z</time>
      </trkpt>
      <trkpt lat="46.95571" lon="-0.8985">
        <ele>139</ele>
        <time>2022-03-23T18:59:42Z</time>
      </trkpt>
      <trkpt lat="46.95563" lon="-0.8982">
        <ele>141</ele>
        <time>2022-03-23T18:59:12Z</time>
      </trkpt>
      <trkpt lat="46.95579" lon="-0.89796">
        <ele>143</ele>
        <time>2022-03-23T18:58:42Z</time>
      </trkpt>
      <trkpt lat="46.95596" lon="-0.89792">
        <ele>142</ele>
        <time>2022-03-23T18:58:19Z</time>
      </trkpt>
      <trkpt lat="46.95602" lon="-0.89782">
        <ele>143</ele>
        <time>2022-03-23T18:58:07Z</time>
      </trkpt>
      <trkpt lat="46.95598" lon="-0.89755">
        <ele>144</ele>
        <time>2022-03-23T18:57:42Z</time>
      </trkpt>
      <trkpt lat="46.95622" lon="-0.89743">
        <ele>143</ele>
        <time>2022-03-23T18:57:08Z</time>
      </trkpt>
      <trkpt lat="46.95646" lon="-0.89729">
        <ele>141</ele>
        <time>2022-03-23T18:56:33Z</time>
      </trkpt>
      <trkpt lat="46.95659" lon="-0.89711">
        <ele>140</ele>
        <time>2022-03-23T18:56:09Z</time>
      </trkpt>
      <trkpt lat="46.95662" lon="-0.897">
        <ele>140</ele>
        <time>2022-03-23T18:55:59Z</time>
      </trkpt>
      <trkpt lat="46.95659" lon="-0.89678">
        <ele>141</ele>
        <time>2022-03-23T18:55:38Z</time>
      </trkpt>
      <trkpt lat="46.95649" lon="-0.8964">
        <ele>143</ele>
        <time>2022-03-23T18:55:01Z</time>
      </trkpt>
      <trkpt lat="46.95682" lon="-0.89586">
        <ele>142</ele>
        <time>2022-03-23T18:53:55Z</time>
      </trkpt>
      <trkpt lat="46.95634" lon="-0.89466">
        <ele>144</ele>
        <time>2022-03-23T18:51:48Z</time>
      </trkpt>
      <trkpt lat="46.95547" lon="-0.8933">
        <ele>140</ele>
        <time>2022-03-23T18:48:59Z</time>
      </trkpt>
      <trkpt lat="46.95482" lon="-0.8922">
        <ele>143</ele>
        <time>2022-03-23T18:46:46Z</time>
      </trkpt>
      <trkpt lat="46.95543" lon="-0.89149">
        <ele>137</ele>
        <time>2022-03-23T18:45:02Z</time>
      </trkpt>
      <trkpt lat="46.95579" lon="-0.89112">
        <ele>133</ele>
        <time>2022-03-23T18:44:03Z</time>
      </trkpt>
      <trkpt lat="46.95601" lon="-0.891">
        <ele>131</ele>
        <time>2022-03-23T18:43:32Z</time>
      </trkpt>
      <trkpt lat="46.95641" lon="-0.89038">
        <ele>127</ele>
        <time>2022-03-23T18:42:14Z</time>
      </trkpt>
      <trkpt lat="46.95693" lon="-0.88945">
        <ele>121</ele>
        <time>2022-03-23T18:40:25Z</time>
      </trkpt>
      <trkpt lat="46.95718" lon="-0.88939">
        <ele>120</ele>
        <time>2022-03-23T18:39:51Z</time>
      </trkpt>
      <trkpt lat="46.95705" lon="-0.88903">
        <ele>118</ele>
        <time>2022-03-23T18:39:14Z</time>
      </trkpt>
      <trkpt lat="46.95743" lon="-0.88857">
        <ele>116</ele>
        <time>2022-03-23T18:38:08Z</time>
      </trkpt>
      <trkpt lat="46.95755" lon="-0.88845">
        <ele>115</ele>
        <time>2022-03-23T18:37:49Z</time>
      </trkpt>
      <trkpt lat="46.95765" lon="-0.88811">
        <ele>115</ele>
        <time>2022-03-23T18:37:15Z</time>
      </trkpt>
      <trkpt lat="46.9577" lon="-0.88808">
        <ele>114</ele>
        <time>2022-03-23T18:37:08Z</time>
      </trkpt>
      <trkpt lat="46.95784" lon="-0.88813">
        <ele>114</ele>
        <time>2022-03-23T18:36:49Z</time>
      </trkpt>
      <trkpt lat="46.95796" lon="-0.88822">
        <ele>115</ele>
        <time>2022-03-23T18:36:31Z</time>
      </trkpt>
      <trkpt lat="46.95814" lon="-0.88826">
        <ele>115</ele>
        <time>2022-03-23T18:36:06Z</time>
      </trkpt>
      <trkpt lat="46.95825" lon="-0.88817">
        <ele>114</ele>
        <time>2022-03-23T18:35:50Z</time>
      </trkpt>
      <trkpt lat="46.95831" lon="-0.88799">
        <ele>113</ele>
        <time>2022-03-23T18:35:31Z</time>
      </trkpt>
      <trkpt lat="46.95838" lon="-0.88776">
        <ele>112</ele>
        <time>2022-03-23T18:35:08Z</time>
      </trkpt>
      <trkpt lat="46.95851" lon="-0.88756">
        <ele>111</ele>
        <time>2022-03-23T18:34:43Z</time>
      </trkpt>
      <trkpt lat="46.95856" lon="-0.88736">
        <ele>111</ele>
        <time>2022-03-23T18:34:24Z</time>
      </trkpt>
      <trkpt lat="46.95859" lon="-0.88715">
        <ele>111</ele>
        <time>2022-03-23T18:34:04Z</time>
      </trkpt>
      <trkpt lat="46.95865" lon="-0.88692">
        <ele>111</ele>
        <time>2022-03-23T18:33:42Z</time>
      </trkpt>
      <trkpt lat="46.95889" lon="-0.88677">
        <ele>112</ele>
        <time>2022-03-23T18:33:07Z</time>
      </trkpt>
    </trkseg>
  </trk>
</gpx>